createdAt,value
2023-05-16T00:02:23.690Z,18.85
2023-05-16T00:04:51.972Z,16.45
2023-05-16T00:07:20.329Z,17.10
2023-05-16T00:09:48.512Z,12.25
2023-05-16T00:12:19.887Z,20.00
2023-05-16T00:14:48.218Z,22.08
2023-05-16T00:17:19.728Z,20.23
2023-05-16T00:19:49.012Z,15.05
2023-05-16T00:22:17.673Z,22.25
2023-05-16T00:24:46.309Z,18.55
2023-05-16T00:27:14.508Z,15.95
2023-05-16T00:29:44.208Z,18.33
2023-05-16T00:32:12.620Z,11.85
2023-05-16T00:34:41.150Z,15.30
2023-05-16T00:37:09.485Z,15.60
2023-05-16T00:39:37.809Z,16.33
2023-05-16T00:42:06.421Z,21.95
2023-05-16T00:44:34.658Z,16.75
2023-05-16T00:47:04.255Z,24.88
2023-05-16T00:49:32.695Z,15.15
2023-05-16T00:52:01.022Z,15.20
2023-05-16T00:54:29.576Z,19.25
2023-05-16T00:56:58.521Z,19.67
2023-05-16T00:59:27.207Z,22.85
2023-05-16T01:01:56.454Z,18.40
2023-05-16T01:04:26.816Z,30.05
2023-05-16T01:06:56.159Z,18.13
2023-05-16T01:09:24.745Z,21.23
2023-05-16T01:11:57.652Z,19.33
2023-05-16T01:14:31.743Z,20.42
2023-05-16T01:17:07.175Z,22.15
2023-05-16T01:19:58.012Z,26.58
2023-05-16T01:22:37.616Z,18.35
2023-05-16T01:25:22.853Z,20.58
2023-05-16T01:27:54.188Z,20.88
2023-05-16T01:30:22.812Z,25.88
2023-05-16T01:32:51.453Z,20.80
2023-05-16T01:35:20.323Z,21.30
2023-05-16T01:37:57.917Z,22.35
2023-05-16T01:40:31.869Z,30.05
2023-05-16T01:43:06.216Z,24.15
2023-05-16T01:45:37.214Z,29.50
2023-05-16T01:48:10.005Z,23.83
2023-05-16T01:50:41.680Z,22.80
2023-05-16T01:53:13.326Z,26.48
2023-05-16T01:55:49.598Z,21.73
2023-05-16T01:58:22.923Z,21.23
2023-05-16T02:00:51.243Z,22.02
2023-05-16T02:03:19.521Z,22.58
2023-05-16T02:05:47.785Z,30.65
2023-05-16T02:08:16.507Z,26.27
2023-05-16T02:10:44.724Z,25.35
2023-05-16T02:13:12.953Z,27.08
2023-05-16T02:15:42.584Z,24.10
2023-05-16T02:18:11.185Z,31.15
2023-05-16T02:20:39.782Z,30.00
2023-05-16T02:23:08.018Z,33.25
2023-05-16T02:25:36.208Z,29.95
2023-05-16T02:28:04.717Z,26.50
2023-05-16T02:30:32.930Z,29.25
2023-05-16T02:33:02.628Z,26.25
2023-05-16T02:35:31.023Z,26.02
2023-05-16T02:37:59.236Z,22.23
2023-05-16T02:40:27.498Z,46.92
2023-05-16T02:42:55.757Z,29.23
2023-05-16T02:45:24.077Z,30.58
2023-05-16T02:47:52.404Z,23.55
2023-05-16T02:50:22.175Z,23.83
2023-05-16T02:52:50.946Z,29.00
2023-05-16T02:55:22.269Z,30.75
2023-05-16T02:57:51.902Z,29.70
2023-05-16T03:00:20.719Z,23.80
2023-05-16T03:02:50.226Z,26.67
2023-05-16T03:05:18.676Z,26.65
2023-05-16T03:07:48.255Z,28.58
2023-05-16T03:10:16.465Z,33.58
2023-05-16T03:12:44.649Z,27.23
2023-05-16T03:15:12.959Z,22.83
2023-05-16T03:17:41.835Z,24.10
2023-05-16T03:20:11.518Z,35.13
2023-05-16T03:22:40.509Z,27.00
2023-05-16T03:25:10.762Z,24.95
2023-05-16T03:27:38.952Z,33.83
2023-05-16T03:30:08.787Z,26.13
2023-05-16T03:32:37.187Z,29.58
2023-05-16T03:35:06.089Z,28.77
2023-05-16T03:37:34.564Z,29.05
2023-05-16T03:40:05.470Z,30.58
2023-05-16T03:42:35.191Z,25.33
2023-05-16T03:45:03.460Z,28.23
2023-05-16T03:47:32.009Z,30.55
2023-05-16T03:50:00.398Z,33.00
2023-05-16T03:52:28.729Z,28.95
2023-05-16T03:54:57.041Z,30.77
2023-05-16T03:57:25.312Z,27.50
2023-05-16T03:59:54.960Z,34.17
2023-05-16T04:02:23.295Z,31.25
2023-05-16T04:04:51.604Z,34.38
2023-05-16T04:07:21.298Z,34.53
2023-05-16T04:09:52.206Z,38.03
2023-05-16T04:12:20.383Z,36.38
2023-05-16T04:14:48.755Z,34.05
2023-05-16T04:17:18.402Z,28.30
2023-05-16T04:19:46.637Z,29.98
2023-05-16T04:22:14.920Z,35.13
2023-05-16T04:24:43.138Z,27.05
2023-05-16T04:27:12.240Z,28.60
2023-05-16T04:29:40.556Z,26.13
2023-05-16T04:32:09.702Z,23.83
2023-05-16T04:34:40.233Z,26.70
2023-05-16T04:37:12.050Z,23.92
2023-05-16T04:39:40.232Z,33.90
2023-05-16T04:42:08.683Z,29.23
2023-05-16T04:44:37.385Z,29.80
2023-05-16T04:47:05.898Z,48.30
2023-05-16T04:49:34.135Z,56.63
2023-05-16T04:52:03.852Z,50.35
2023-05-16T04:54:32.460Z,40.08
2023-05-16T04:57:01.344Z,32.65
2023-05-16T04:59:29.558Z,30.30
2023-05-16T05:01:57.814Z,35.33
2023-05-16T05:04:26.368Z,29.90
2023-05-16T05:06:54.663Z,29.00
2023-05-16T05:09:24.549Z,29.15
2023-05-16T05:11:52.768Z,38.20
2023-05-16T05:14:21.432Z,52.90
2023-05-16T05:16:49.751Z,34.10
2023-05-16T05:19:18.054Z,45.92
2023-05-16T05:21:46.291Z,27.70
2023-05-16T05:24:14.493Z,32.22
2023-05-16T05:26:44.220Z,34.78
2023-05-16T05:29:12.536Z,31.88
2023-05-16T05:31:40.882Z,31.30
2023-05-16T05:34:09.116Z,26.30
2023-05-16T05:36:37.303Z,28.08
2023-05-16T05:39:05.672Z,29.63
2023-05-16T05:41:33.954Z,28.98
2023-05-16T05:44:03.952Z,38.00
2023-05-16T05:46:32.416Z,32.90
2023-05-16T05:49:00.762Z,45.85
2023-05-16T05:51:29.034Z,36.80
2023-05-16T05:53:57.389Z,38.03
2023-05-16T05:56:25.907Z,40.00
2023-05-16T05:58:57.204Z,38.45
2023-05-16T06:01:27.260Z,35.42
2023-05-16T06:03:55.460Z,34.95
2023-05-16T06:06:23.636Z,36.13
2023-05-16T06:08:51.868Z,33.90
2023-05-16T06:11:20.218Z,40.40
2023-05-16T06:13:48.447Z,33.13
2023-05-16T06:16:16.722Z,36.55
2023-05-16T06:18:46.686Z,35.08
2023-05-16T06:21:15.301Z,34.20
2023-05-16T06:23:43.513Z,29.05
2023-05-16T06:26:11.736Z,31.40
2023-05-16T06:28:39.925Z,35.40
2023-05-16T06:31:08.285Z,41.58
2023-05-16T06:33:36.620Z,34.58
2023-05-16T06:36:06.756Z,31.65
2023-05-16T06:38:35.152Z,34.33
2023-05-16T06:41:03.383Z,29.40
2023-05-16T06:43:31.656Z,43.17
2023-05-16T06:45:59.907Z,35.35
2023-05-16T06:48:28.631Z,26.30
2023-05-16T06:50:57.656Z,34.67
2023-05-16T06:53:27.359Z,27.90
2023-05-16T06:55:55.806Z,30.80
2023-05-16T06:58:24.017Z,29.83
2023-05-16T07:00:52.706Z,43.17
2023-05-16T07:03:21.099Z,36.58
2023-05-16T07:05:51.617Z,30.48
2023-05-16T07:08:19.915Z,31.70
2023-05-16T07:10:49.531Z,32.85
2023-05-16T07:13:17.740Z,32.85
2023-05-16T07:15:45.955Z,31.60
2023-05-16T07:18:14.332Z,32.63
2023-05-16T07:20:42.889Z,29.98
2023-05-16T07:23:11.131Z,34.05
2023-05-16T07:25:39.568Z,35.67
2023-05-16T07:28:09.205Z,35.55
2023-05-16T07:30:37.499Z,30.98
2023-05-16T07:33:05.992Z,34.03
2023-05-16T07:35:34.311Z,34.33
2023-05-16T07:38:02.636Z,30.52
2023-05-16T07:40:30.933Z,33.13
2023-05-16T07:42:59.574Z,34.55
2023-05-16T07:45:30.029Z,36.85
2023-05-16T07:48:00.035Z,39.03
2023-05-16T07:50:28.349Z,36.63
2023-05-16T07:52:56.732Z,42.45
2023-05-16T07:55:25.098Z,37.88
2023-05-16T07:57:53.497Z,40.25
2023-05-16T08:00:22.851Z,39.90
2023-05-16T08:02:52.950Z,37.65
2023-05-16T08:05:21.321Z,37.95
2023-05-16T08:07:51.690Z,37.35
2023-05-16T08:10:20.002Z,38.90
2023-05-16T08:12:48.422Z,35.20
2023-05-16T08:15:16.952Z,40.60
2023-05-16T08:17:45.259Z,37.38
2023-05-16T08:20:15.294Z,46.03
2023-05-16T08:22:43.560Z,43.00
2023-05-16T08:25:12.007Z,41.88
2023-05-16T08:27:40.805Z,43.53
2023-05-16T08:30:11.404Z,43.63
2023-05-16T08:32:39.967Z,43.17
2023-05-16T08:35:10.228Z,44.92
2023-05-16T08:37:39.904Z,48.90
2023-05-16T08:40:11.508Z,41.58
2023-05-16T08:42:40.843Z,45.25
2023-05-16T08:45:11.595Z,43.47
2023-05-16T08:47:42.430Z,47.80
2023-05-16T08:50:12.016Z,52.30
2023-05-16T08:52:44.890Z,42.60
2023-05-16T08:55:14.710Z,46.60
2023-05-16T08:57:43.561Z,45.70
2023-05-16T09:00:13.040Z,54.15
2023-05-16T09:02:42.340Z,49.95
2023-05-16T09:05:13.433Z,45.30
2023-05-16T09:07:43.454Z,45.90
2023-05-16T09:10:12.725Z,46.35
2023-05-16T09:12:42.308Z,50.97
2023-05-16T09:15:11.982Z,48.60
2023-05-16T09:17:42.634Z,52.33
2023-05-16T09:20:12.480Z,48.38
2023-05-16T09:22:51.132Z,56.20
2023-05-16T09:25:29.199Z,49.88
2023-05-16T09:28:01.912Z,48.35
2023-05-16T09:30:33.788Z,46.28
2023-05-16T09:33:02.437Z,46.78
2023-05-16T09:35:43.997Z,44.58
2023-05-16T09:38:17.539Z,42.83
2023-05-16T09:40:46.632Z,47.55
2023-05-16T09:43:18.239Z,50.80
2023-05-16T09:45:50.392Z,46.10
2023-05-16T09:48:19.192Z,45.20
2023-05-16T09:50:53.169Z,42.55
2023-05-16T09:53:28.696Z,52.80
2023-05-16T09:56:04.856Z,47.53
2023-05-16T09:58:37.496Z,52.92
2023-05-16T10:01:07.280Z,50.13
2023-05-16T10:03:36.719Z,46.95
2023-05-16T10:06:06.769Z,53.60
2023-05-16T10:08:38.099Z,56.85
2023-05-16T10:11:07.633Z,49.08
2023-05-16T10:13:37.796Z,50.00
2023-05-16T10:16:09.429Z,53.00
2023-05-16T10:18:39.489Z,48.85
2023-05-16T10:21:11.885Z,55.40
2023-05-16T10:23:43.767Z,47.45
2023-05-16T10:26:14.646Z,51.88
2023-05-16T10:28:43.285Z,41.60
2023-05-16T10:31:12.511Z,50.08
2023-05-16T10:33:41.379Z,46.88
2023-05-16T10:36:13.744Z,50.47
2023-05-16T10:38:44.555Z,50.20
2023-05-16T10:41:13.354Z,52.35
2023-05-16T10:43:45.513Z,50.63
2023-05-16T10:46:14.294Z,45.78
2023-05-16T10:48:43.794Z,45.90
2023-05-16T10:51:36.804Z,46.25
2023-05-16T10:54:10.843Z,42.88
2023-05-16T10:56:39.416Z,41.38
2023-05-16T10:59:24.828Z,43.70
2023-05-16T11:01:55.229Z,44.83
2023-05-16T11:04:23.575Z,38.30
2023-05-16T11:06:54.016Z,42.00
2023-05-16T11:09:28.431Z,36.40
2023-05-16T11:12:06.500Z,37.55
2023-05-16T11:14:39.769Z,36.97
2023-05-16T11:17:13.225Z,37.58
2023-05-16T11:19:43.457Z,35.05
2023-05-16T11:22:25.848Z,38.70
2023-05-16T11:24:58.247Z,33.70
2023-05-16T11:27:29.610Z,34.00
2023-05-16T11:30:03.718Z,29.65
2023-05-16T11:32:35.584Z,35.40
2023-05-16T11:35:07.996Z,34.22
2023-05-16T11:37:38.503Z,37.75
2023-05-16T11:40:11.426Z,32.80
2023-05-16T11:42:41.928Z,33.58
2023-05-16T11:45:12.307Z,34.33
2023-05-16T11:47:41.842Z,35.55
2023-05-16T11:50:14.025Z,35.10
2023-05-16T11:52:45.575Z,33.95
2023-05-16T11:55:28.101Z,38.42
2023-05-16T11:58:02.088Z,40.30
2023-05-16T12:00:30.585Z,30.70
2023-05-16T12:03:05.912Z,24.80
2023-05-16T12:05:35.782Z,32.85
2023-05-16T12:08:05.810Z,30.48
2023-05-16T12:10:35.727Z,26.08
2023-05-16T12:13:04.918Z,27.63
2023-05-16T12:15:33.545Z,31.88
2023-05-16T12:18:02.424Z,25.65
2023-05-16T12:20:30.945Z,30.00
2023-05-16T12:23:02.236Z,24.20
2023-05-16T12:25:36.393Z,24.90
2023-05-16T12:28:07.837Z,21.67
2023-05-16T12:30:36.261Z,25.27
2023-05-16T12:33:09.474Z,27.90
2023-05-16T12:35:41.278Z,20.85
2023-05-16T12:38:10.708Z,29.77
2023-05-16T12:40:39.655Z,27.65
2023-05-16T12:43:14.740Z,28.20
2023-05-16T12:45:43.480Z,27.55
2023-05-16T12:48:18.398Z,23.77
2023-05-16T12:50:47.440Z,26.95
2023-05-16T12:53:17.174Z,26.65
2023-05-16T12:55:46.203Z,31.10
2023-05-16T12:58:16.632Z,25.10
2023-05-16T13:00:44.951Z,30.92
2023-05-16T13:03:13.268Z,24.60
2023-05-16T13:05:41.751Z,24.58
2023-05-16T13:08:13.161Z,29.25
2023-05-16T13:10:41.384Z,31.05
2023-05-16T13:13:09.579Z,26.55
2023-05-16T13:15:44.911Z,31.17
2023-05-16T13:18:13.214Z,29.80
2023-05-16T13:20:42.309Z,26.05
2023-05-16T13:23:10.540Z,24.35
2023-05-16T13:25:38.857Z,22.60
2023-05-16T13:28:11.045Z,25.10
2023-05-16T13:30:40.976Z,23.25
2023-05-16T13:33:09.234Z,17.67
2023-05-16T13:35:37.511Z,19.13
2023-05-16T13:38:06.020Z,16.42
2023-05-16T13:40:34.275Z,19.13
2023-05-16T13:43:02.833Z,17.55
2023-05-16T13:45:31.481Z,21.83
2023-05-16T13:48:01.692Z,15.38
2023-05-16T13:53:01.061Z,16.88
2023-05-16T13:55:29.709Z,15.75
2023-05-16T13:57:58.369Z,16.83
2023-05-16T14:00:43.227Z,14.18
2023-05-16T14:03:14.812Z,14.45
2023-05-16T14:05:46.287Z,18.55
2023-05-16T14:08:14.512Z,14.30
2023-05-16T14:10:42.719Z,24.95
2023-05-16T14:13:10.979Z,10.65
2023-05-16T14:15:39.184Z,11.52
2023-05-16T14:18:07.739Z,16.70
2023-05-16T14:20:37.389Z,12.65
2023-05-16T14:23:05.609Z,14.35
2023-05-16T14:25:33.868Z,11.82
2023-05-16T14:28:05.353Z,18.73
2023-05-16T14:30:33.566Z,11.40
2023-05-16T14:33:03.455Z,14.68
2023-05-16T14:35:32.135Z,18.92
2023-05-16T14:38:02.255Z,16.30
2023-05-16T14:40:30.556Z,22.38
2023-05-16T14:42:58.789Z,10.20
2023-05-16T14:45:27.384Z,15.23
2023-05-16T14:47:55.879Z,10.55
2023-05-16T14:50:24.326Z,10.85
2023-05-16T14:52:53.087Z,12.95
2023-05-16T14:55:22.905Z,12.70
2023-05-16T14:57:57.101Z,15.15
2023-05-16T15:00:28.242Z,23.50
2023-05-16T15:02:56.707Z,10.50
2023-05-16T15:05:25.703Z,11.00
2023-05-16T15:07:54.078Z,13.55
2023-05-16T15:10:24.248Z,10.65
2023-05-16T15:12:52.587Z,9.75
2023-05-16T15:15:20.956Z,14.52
2023-05-16T15:17:49.406Z,10.75
2023-05-16T15:20:18.239Z,21.08
2023-05-16T15:22:47.787Z,11.32
2023-05-16T15:25:16.291Z,11.82
2023-05-16T15:27:46.019Z,13.48
2023-05-16T15:30:14.654Z,12.88
2023-05-16T15:32:42.887Z,12.13
2023-05-16T15:35:11.392Z,19.48
2023-05-16T15:37:42.249Z,30.60
2023-05-16T15:40:18.344Z,22.73
2023-05-16T15:42:48.698Z,15.38
2023-05-16T15:45:17.088Z,10.80
2023-05-16T15:47:45.476Z,14.32
2023-05-16T15:50:13.699Z,14.57
2023-05-16T15:52:42.175Z,13.55
2023-05-16T15:55:11.981Z,9.73
2023-05-16T15:57:40.622Z,10.40
2023-05-16T16:00:11.578Z,11.30
2023-05-16T16:02:40.318Z,13.63
2023-05-16T16:05:09.540Z,20.80
2023-05-16T16:07:37.834Z,11.35
2023-05-16T16:10:06.738Z,11.90
2023-05-16T16:12:38.091Z,11.13
2023-05-16T16:15:07.487Z,11.77
2023-05-16T16:17:37.147Z,12.65
2023-05-16T16:20:06.005Z,10.88
2023-05-16T16:22:34.266Z,10.43
2023-05-16T16:25:02.458Z,13.63
2023-05-16T16:27:30.720Z,13.98
2023-05-16T16:29:59.056Z,11.50
2023-05-16T16:32:27.438Z,12.75
2023-05-16T16:34:57.634Z,16.23
2023-05-16T16:37:26.059Z,16.65
2023-05-16T16:39:54.532Z,16.17
2023-05-16T16:42:25.206Z,14.07
2023-05-16T16:44:53.835Z,10.75
2023-05-16T16:47:23.043Z,12.60
2023-05-16T16:49:51.467Z,11.63
2023-05-16T16:52:23.983Z,14.73
2023-05-16T16:54:52.324Z,12.40
2023-05-16T16:57:20.638Z,11.68
2023-05-16T16:59:49.226Z,12.30
2023-05-16T17:02:17.827Z,19.52
2023-05-16T17:04:46.287Z,19.90
2023-05-16T17:07:14.553Z,10.25
2023-05-16T17:09:44.724Z,10.27
2023-05-16T17:12:20.334Z,11.18
2023-05-16T17:14:48.921Z,11.02
2023-05-16T17:17:17.448Z,13.57
2023-05-16T17:19:48.391Z,8.15
2023-05-16T17:22:16.635Z,11.63
2023-05-16T17:24:46.486Z,10.55
2023-05-16T17:27:14.712Z,13.85
2023-05-16T17:29:42.958Z,10.27
2023-05-16T17:32:14.061Z,11.30
2023-05-16T17:34:49.559Z,7.45
2023-05-16T17:37:18.202Z,8.52
2023-05-16T17:39:47.879Z,9.95
2023-05-16T17:42:21.916Z,10.65
2023-05-16T17:44:52.510Z,7.32
2023-05-16T17:47:20.797Z,10.75
2023-05-16T17:49:54.010Z,8.38
2023-05-16T17:52:23.336Z,5.18
2023-05-16T17:54:53.235Z,7.13
2023-05-16T17:57:21.517Z,10.95
2023-05-16T17:59:52.920Z,6.15
2023-05-16T18:02:21.246Z,12.02
2023-05-16T18:04:55.854Z,13.63
2023-05-16T18:07:26.921Z,8.93
2023-05-16T18:09:56.757Z,12.43
2023-05-16T18:12:25.261Z,6.30
2023-05-16T18:14:53.505Z,10.85
2023-05-16T18:17:21.866Z,6.82
2023-05-16T18:19:59.021Z,12.68
2023-05-16T18:22:27.616Z,8.77
2023-05-16T18:25:08.168Z,12.50
2023-05-16T18:27:36.855Z,6.10
2023-05-16T18:30:07.496Z,9.27
2023-05-16T18:32:36.580Z,8.13
2023-05-16T18:35:08.263Z,15.63
2023-05-16T18:37:36.641Z,13.20
2023-05-16T18:40:07.736Z,7.82
2023-05-16T18:42:36.010Z,11.38
2023-05-16T18:45:04.500Z,11.02
2023-05-16T18:47:35.594Z,11.95
2023-05-16T18:50:04.708Z,16.70
2023-05-16T18:52:35.276Z,11.27
2023-05-16T18:55:11.781Z,11.98
2023-05-16T18:57:44.190Z,11.68
2023-05-16T19:00:13.616Z,13.23
2023-05-16T19:02:42.918Z,11.80
2023-05-16T19:05:20.989Z,14.85
2023-05-16T19:07:49.279Z,16.23
2023-05-16T19:10:19.213Z,14.68
2023-05-16T19:12:53.560Z,29.73
2023-05-16T19:15:21.974Z,18.00
2023-05-16T19:17:53.163Z,14.07
2023-05-16T19:20:21.604Z,12.60
2023-05-16T19:22:49.824Z,12.00
2023-05-16T19:25:23.833Z,10.98
2023-05-16T19:27:53.317Z,17.13
2023-05-16T19:30:21.672Z,16.08
2023-05-16T19:32:56.119Z,15.93
2023-05-16T19:35:32.888Z,15.57
2023-05-16T19:38:02.517Z,16.88
2023-05-16T19:40:33.620Z,16.90
2023-05-16T19:43:02.059Z,21.77
2023-05-16T19:45:30.744Z,15.18
2023-05-16T19:48:01.300Z,16.60
2023-05-16T19:50:29.825Z,14.57
2023-05-16T19:52:58.047Z,17.02
2023-05-16T19:55:27.372Z,16.58
2023-05-16T19:57:57.343Z,14.82
2023-05-16T20:00:25.971Z,16.65
2023-05-16T20:02:54.528Z,16.42
2023-05-16T20:05:23.555Z,10.60
2023-05-16T20:07:53.280Z,11.73
2023-05-16T20:10:24.354Z,13.35
2023-05-16T20:12:52.674Z,12.75
2023-05-16T20:15:22.403Z,16.00
2023-05-16T20:17:53.783Z,13.40
2023-05-16T20:20:22.336Z,15.40
2023-05-16T20:22:53.474Z,9.95
2023-05-16T20:25:21.780Z,16.98
2023-05-16T20:27:50.150Z,12.38
2023-05-16T20:30:18.445Z,16.27
2023-05-16T20:32:48.171Z,15.13
2023-05-16T20:35:16.578Z,13.75
2023-05-16T20:37:47.966Z,14.38
2023-05-16T20:40:16.326Z,9.35
2023-05-16T20:42:44.551Z,13.48
2023-05-16T20:45:12.857Z,15.38
2023-05-16T20:47:41.214Z,12.23
2023-05-16T20:50:11.815Z,16.10
2023-05-16T20:52:40.053Z,14.65
2023-05-16T20:55:08.965Z,11.15
2023-05-16T20:57:37.247Z,15.65
2023-05-16T21:00:10.111Z,14.93
2023-05-16T21:02:38.440Z,14.93
2023-05-16T21:05:23.104Z,14.18
2023-05-16T21:07:54.594Z,13.70
2023-05-16T21:10:22.961Z,18.73
2023-05-16T21:12:51.358Z,13.05
2023-05-16T21:15:23.107Z,15.15
2023-05-16T21:17:51.993Z,11.57
2023-05-16T21:20:20.676Z,12.50
2023-05-16T21:22:48.907Z,15.30
2023-05-16T21:25:18.558Z,10.43
2023-05-16T21:27:46.826Z,14.73
2023-05-16T21:30:15.681Z,13.38
2023-05-16T21:32:44.028Z,33.45
2023-05-16T21:35:12.370Z,15.82
2023-05-16T21:37:40.740Z,14.93
2023-05-16T21:40:10.370Z,13.73
2023-05-16T21:42:43.037Z,16.52
2023-05-16T21:45:16.389Z,14.32
2023-05-16T21:47:45.089Z,10.48
2023-05-16T21:50:13.956Z,9.38
2023-05-16T21:52:42.721Z,13.45
2023-05-16T21:55:11.388Z,13.55
2023-05-16T21:57:41.052Z,13.15
2023-05-16T22:00:10.290Z,8.27
2023-05-16T22:02:38.904Z,12.38
2023-05-16T22:05:08.370Z,12.18
2023-05-16T22:07:37.296Z,15.77
2023-05-16T22:10:07.430Z,19.48
2023-05-16T22:12:35.707Z,19.27
2023-05-16T22:15:05.946Z,12.32
2023-05-16T22:17:34.327Z,19.92
2023-05-16T22:20:03.198Z,20.25
2023-05-16T22:22:31.468Z,10.27
2023-05-16T22:24:59.737Z,19.27
2023-05-16T22:27:28.048Z,12.45
2023-05-16T22:29:56.251Z,17.40
2023-05-16T22:32:25.921Z,17.10
2023-05-16T22:34:54.476Z,14.57
2023-05-16T22:37:22.845Z,6.13
2023-05-16T22:39:51.524Z,10.35
2023-05-16T22:42:19.910Z,10.55
2023-05-16T22:44:48.162Z,11.38
2023-05-16T22:47:16.423Z,7.97
2023-05-16T22:49:46.028Z,9.43
2023-05-16T22:52:14.254Z,8.98
2023-05-16T22:54:42.684Z,9.75
2023-05-16T22:57:10.960Z,7.45
2023-05-16T22:59:39.171Z,6.57
2023-05-16T23:02:07.535Z,11.55
2023-05-16T23:04:35.873Z,8.70
2023-05-16T23:07:05.871Z,4.82
2023-05-16T23:09:34.152Z,9.77
2023-05-16T23:12:02.756Z,3.72
2023-05-16T23:14:31.152Z,11.23
2023-05-16T23:16:59.410Z,4.00
2023-05-16T23:19:27.735Z,5.47
2023-05-16T23:21:56.060Z,7.07
2023-05-16T23:24:25.803Z,10.32
2023-05-16T23:26:54.095Z,7.80
2023-05-16T23:29:22.312Z,5.03
2023-05-16T23:31:50.563Z,8.63
2023-05-16T23:34:18.805Z,9.68
2023-05-16T23:36:47.039Z,11.63
2023-05-16T23:39:15.366Z,6.28
2023-05-16T23:41:45.061Z,6.13
2023-05-16T23:44:13.412Z,3.67
2023-05-16T23:46:41.688Z,8.13
2023-05-16T23:49:09.933Z,17.65
2023-05-16T23:51:52.814Z,8.02
2023-05-16T23:54:25.557Z,4.28
2023-05-16T23:56:55.191Z,6.97
2023-05-16T23:59:23.445Z,6.60
